Time;durP1;ratioP1;P1;durP2;ratioP2;P2;SDS_P1;SDS_P2;PMS_P1;PMS_P2;Temp;Humidity;BMP_temperature;BMP_pressure;BME280_temperature;BME280_humidity;BME280_pressure;Samples;Min_cycle;Max_cycle;Signal;HPM_P1;HPM_P2
2023/03/03 00:02:09;;;;;;;24.10;9.80;;;2.00;99.90;;;;;;5078502;28;20450;-64
2023/03/03 00:04:39;;;;;;;18.60;9.47;;;1.90;99.90;;;;;;5078304;28;20558;-64
2023/03/03 00:07:07;;;;;;;21.53;11.27;;;2.00;99.90;;;;;;5078874;28;20489;-64
2023/03/03 00:09:34;;;;;;;19.37;9.63;;;2.00;99.90;;;;;;5077819;28;20486;-62
2023/03/03 00:12:17;;;;;;;23.80;9.70;;;2.00;99.90;;;;;;5077853;28;20450;-63
2023/03/03 00:14:44;;;;;;;15.33;7.73;;;2.00;99.90;;;;;;5077646;28;20459;-65
2023/03/03 00:17:20;;;;;;;17.47;9.10;;;2.00;99.90;;;;;;5077890;28;20419;-64
2023/03/03 00:19:48;;;;;;;13.43;6.20;;;2.00;99.90;;;;;;5076946;28;20451;-65
2023/03/03 00:22:23;;;;;;;12.33;7.60;;;1.90;99.90;;;;;;5077967;28;20427;-65
2023/03/03 00:24:49;;;;;;;20.27;7.90;;;2.00;99.90;;;;;;5078452;28;20411;-64
2023/03/03 00:27:25;;;;;;;20.43;9.87;;;2.00;99.90;;;;;;5077599;28;20486;-63
2023/03/03 00:29:55;;;;;;;20.33;7.50;;;1.90;99.90;;;;;;5077448;28;20431;-61
2023/03/03 00:32:27;;;;;;;15.50;7.20;;;1.90;99.90;;;;;;5078458;28;20963;-65
2023/03/03 00:35:01;;;;;;;17.97;9.20;;;1.90;99.90;;;;;;5078673;28;20427;-65
2023/03/03 00:37:31;;;;;;;16.00;8.00;;;1.90;99.90;;;;;;5078283;28;20444;-63
2023/03/03 00:40:30;;;;;;;20.03;9.63;;;1.90;99.90;;;;;;5078388;28;20450;-64
2023/03/03 00:42:59;;;;;;;13.90;7.70;;;1.90;99.90;;;;;;4997692;28;20471;-65
2023/03/03 00:45:35;;;;;;;11.43;6.40;;;1.90;99.90;;;;;;5059912;28;20456;-64
2023/03/03 00:48:24;;;;;;;11.07;5.40;;;1.90;99.90;;;;;;5077360;28;20498;-65
2023/03/03 00:50:52;;;;;;;15.70;8.10;;;1.90;99.90;;;;;;5077452;28;20404;-64
2023/03/03 00:53:20;;;;;;;11.67;7.00;;;1.90;99.90;;;;;;5078409;28;20444;-62
2023/03/03 00:55:49;;;;;;;20.07;7.43;;;1.90;99.90;;;;;;5078637;28;20486;-65
2023/03/03 00:58:17;;;;;;;13.27;7.57;;;1.90;99.90;;;;;;5077937;28;20443;-65
2023/03/03 01:00:44;;;;;;;10.80;5.67;;;1.80;99.90;;;;;;5077636;28;20474;-65
2023/03/03 01:03:15;;;;;;;12.50;6.37;;;1.80;99.90;;;;;;5078338;28;20487;-59
2023/03/03 01:05:46;;;;;;;17.50;7.33;;;1.80;99.90;;;;;;5078090;28;20470;-65
2023/03/03 01:08:13;;;;;;;12.90;6.80;;;1.80;99.90;;;;;;5077903;28;20443;-63
2023/03/03 01:10:43;;;;;;;15.50;7.67;;;1.80;99.90;;;;;;5076420;28;20463;-64
2023/03/03 01:13:11;;;;;;;15.87;7.43;;;1.80;99.90;;;;;;5076263;28;20450;-64
2023/03/03 01:15:39;;;;;;;9.87;5.37;;;1.80;99.90;;;;;;5076831;28;20464;-65
2023/03/03 01:18:11;;;;;;;16.70;7.37;;;1.90;99.90;;;;;;5076240;28;20772;-63
2023/03/03 01:20:39;;;;;;;24.90;6.73;;;1.90;99.90;;;;;;5076962;28;20461;-63
2023/03/03 01:23:07;;;;;;;7.77;5.30;;;1.90;99.90;;;;;;5077919;28;20431;-63
2023/03/03 01:25:35;;;;;;;13.50;8.00;;;1.90;99.90;;;;;;5077726;28;20420;-65
2023/03/03 01:28:02;;;;;;;13.07;6.87;;;1.90;99.90;;;;;;5078385;28;20518;-62
2023/03/03 01:30:29;;;;;;;11.47;6.37;;;1.90;99.90;;;;;;5078985;28;20467;-64
2023/03/03 01:32:59;;;;;;;31.13;7.77;;;2.00;99.90;;;;;;5076740;28;20470;-64
2023/03/03 01:35:29;;;;;;;16.63;7.17;;;2.00;99.90;;;;;;5077053;28;20443;-63
2023/03/03 01:37:58;;;;;;;15.80;6.90;;;2.00;99.90;;;;;;5076289;28;20424;-65
2023/03/03 01:40:29;;;;;;;12.90;6.97;;;2.00;99.90;;;;;;5077389;28;20423;-65
2023/03/03 01:42:56;;;;;;;11.23;7.60;;;1.90;99.90;;;;;;5077442;28;20427;-64
2023/03/03 01:45:25;;;;;;;17.67;7.67;;;1.90;99.90;;;;;;5077371;28;20435;-64
2023/03/03 01:47:59;;;;;;;9.97;6.27;;;1.90;99.90;;;;;;5075765;28;20499;-64
2023/03/03 01:50:35;;;;;;;15.03;7.13;;;1.90;99.90;;;;;;5075960;28;20466;-65
2023/03/03 01:53:04;;;;;;;17.30;8.93;;;1.90;99.90;;;;;;5075987;28;20435;-66
2023/03/03 01:55:35;;;;;;;17.37;10.00;;;1.90;99.90;;;;;;5076306;28;20502;-63
2023/03/03 01:58:07;;;;;;;20.70;10.10;;;1.90;99.90;;;;;;5075757;28;20427;-65
2023/03/03 02:00:36;;;;;;;13.83;9.60;;;1.80;99.90;;;;;;5076610;28;20451;-63
2023/03/03 02:03:03;;;;;;;23.93;9.90;;;1.80;99.90;;;;;;5076796;28;20428;-65
2023/03/03 02:05:30;;;;;;;25.33;9.47;;;1.80;99.90;;;;;;5075877;28;20415;-65
2023/03/03 02:07:57;;;;;;;18.30;10.23;;;1.80;99.90;;;;;;5075296;28;20471;-64
2023/03/03 02:10:24;;;;;;;16.97;8.53;;;1.70;99.90;;;;;;5075346;28;20516;-65
2023/03/03 02:12:55;;;;;;;15.60;9.23;;;1.80;99.90;;;;;;5075362;28;20499;-64
2023/03/03 02:15:25;;;;;;;22.00;9.93;;;1.80;99.90;;;;;;5075534;28;20448;-65
2023/03/03 02:17:54;;;;;;;18.60;10.57;;;1.80;99.90;;;;;;5075863;28;20478;-65
2023/03/03 02:20:35;;;;;;;17.73;9.37;;;1.90;99.90;;;;;;5075662;28;20447;-65
2023/03/03 02:23:09;;;;;;;22.37;9.60;;;1.90;99.90;;;;;;5075727;28;20485;-67
2023/03/03 02:25:43;;;;;;;18.40;7.23;;;1.90;99.90;;;;;;5076955;28;20434;-65
2023/03/03 02:28:12;;;;;;;18.43;9.37;;;2.00;99.90;;;;;;5076647;28;20455;-63
2023/03/03 02:30:39;;;;;;;17.03;9.40;;;2.00;99.90;;;;;;5077168;28;20412;-60
2023/03/03 02:33:07;;;;;;;19.53;8.80;;;2.00;99.90;;;;;;5076345;28;20427;-65
2023/03/03 02:35:36;;;;;;;17.87;8.87;;;2.00;99.90;;;;;;5077032;28;20467;-63
2023/03/03 02:38:20;;;;;;;25.80;9.77;;;1.90;99.90;;;;;;5076724;28;20439;-65
2023/03/03 02:41:06;;;;;;;19.77;10.00;;;1.90;99.90;;;;;;5076801;28;20463;-65
2023/03/03 02:43:40;;;;;;;20.63;9.30;;;1.90;99.90;;;;;;5076342;28;20428;-63
2023/03/03 02:46:07;;;;;;;21.90;10.07;;;1.90;99.90;;;;;;5076247;28;20463;-65
2023/03/03 02:48:34;;;;;;;21.13;9.40;;;1.90;99.90;;;;;;5075584;28;20470;-64
2023/03/03 02:51:01;;;;;;;21.33;8.40;;;1.90;99.90;;;;;;5075094;28;20463;-64
2023/03/03 02:53:28;;;;;;;15.43;8.43;;;1.80;99.90;;;;;;5075007;28;20435;-65
2023/03/03 02:55:55;;;;;;;24.10;10.23;;;1.90;99.90;;;;;;5075157;28;20474;-63
2023/03/03 02:58:21;;;;;;;12.13;8.20;;;1.80;99.90;;;;;;5075873;28;20423;-64
2023/03/03 03:00:50;;;;;;;15.63;9.67;;;1.90;99.90;;;;;;5075633;28;20440;-61
2023/03/03 03:03:17;;;;;;;22.37;10.67;;;1.90;99.90;;;;;;5075790;28;20474;-65
2023/03/03 03:05:43;;;;;;;20.97;9.93;;;1.80;99.90;;;;;;5075267;28;20451;-64
2023/03/03 03:08:10;;;;;;;25.13;13.67;;;1.80;99.90;;;;;;5074485;28;20523;-64
2023/03/03 03:10:37;;;;;;;23.60;8.73;;;1.80;99.90;;;;;;5074482;28;20462;-64
2023/03/03 03:13:04;;;;;;;14.90;9.07;;;1.80;99.90;;;;;;5075150;28;20467;-62
2023/03/03 03:15:31;;;;;;;17.10;8.90;;;1.80;99.90;;;;;;5075943;28;20424;-65
2023/03/03 03:17:59;;;;;;;14.53;6.90;;;1.80;99.90;;;;;;5076531;28;20462;-63
2023/03/03 03:20:26;;;;;;;18.30;8.67;;;1.80;99.90;;;;;;5075778;28;20487;-64
2023/03/03 03:22:59;;;;;;;21.20;11.27;;;1.70;99.90;;;;;;5076647;28;20443;-64
2023/03/03 03:25:26;;;;;;;17.57;8.73;;;1.70;99.90;;;;;;5076978;28;20482;-63
2023/03/03 03:27:53;;;;;;;19.57;9.27;;;1.80;99.90;;;;;;5076069;28;20451;-65
2023/03/03 03:30:21;;;;;;;19.27;9.70;;;1.70;99.90;;;;;;5076014;28;20513;-60
2023/03/03 03:32:48;;;;;;;14.63;7.13;;;1.70;99.90;;;;;;5074873;28;20507;-64
2023/03/03 03:35:16;;;;;;;14.40;7.33;;;1.70;99.90;;;;;;5075057;28;20435;-64
2023/03/03 03:37:43;;;;;;;13.10;8.27;;;1.70;99.90;;;;;;5075369;28;20442;-65
2023/03/03 03:40:11;;;;;;;16.23;8.50;;;1.70;99.90;;;;;;5074303;28;20473;-63
2023/03/03 03:42:45;;;;;;;17.03;8.00;;;1.60;99.90;;;;;;5074880;28;20439;-65
2023/03/03 03:45:14;;;;;;;20.13;10.60;;;1.50;99.90;;;;;;5073790;28;20454;-68
2023/03/03 03:47:41;;;;;;;18.60;6.80;;;1.50;99.90;;;;;;5073583;28;20462;-64
2023/03/03 03:50:09;;;;;;;19.73;9.57;;;1.50;99.90;;;;;;5073884;28;20485;-64
2023/03/03 03:52:37;;;;;;;22.70;7.57;;;1.50;99.90;;;;;;5073682;28;20510;-61
2023/03/03 03:55:07;;;;;;;16.93;9.30;;;1.50;99.90;;;;;;5074727;28;20923;-63
2023/03/03 03:57:36;;;;;;;18.63;9.90;;;1.50;99.90;;;;;;5077600;28;20459;-64
2023/03/03 04:00:04;;;;;;;18.90;8.63;;;1.40;99.90;;;;;;5078293;28;20424;-62
2023/03/03 04:02:31;;;;;;;17.00;8.50;;;1.40;99.90;;;;;;5079382;28;20478;-63
2023/03/03 04:04:58;;;;;;;13.50;9.00;;;1.40;99.90;;;;;;5079407;28;20450;-65
2023/03/03 04:07:25;;;;;;;17.73;8.93;;;1.30;99.90;;;;;;5078945;28;20431;-63
2023/03/03 04:09:53;;;;;;;19.27;8.47;;;1.30;99.90;;;;;;5079145;28;20574;-64
2023/03/03 04:12:20;;;;;;;18.33;8.50;;;1.30;99.90;;;;;;5079756;28;20423;-64
2023/03/03 04:14:50;;;;;;;11.57;7.50;;;1.20;99.90;;;;;;5078992;28;20498;-65
2023/03/03 04:17:17;;;;;;;14.67;8.07;;;1.20;99.90;;;;;;5078817;28;20519;-64
2023/03/03 04:19:44;;;;;;;21.77;8.07;;;1.10;99.90;;;;;;5078355;28;20459;-64
2023/03/03 04:22:12;;;;;;;19.67;9.00;;;1.10;99.90;;;;;;5078172;28;20853;-64
2023/03/03 04:24:39;;;;;;;13.73;7.57;;;1.10;99.90;;;;;;5078224;28;20427;-64
2023/03/03 04:27:08;;;;;;;18.63;7.27;;;1.10;99.90;;;;;;5077964;28;20443;-64
2023/03/03 04:29:35;;;;;;;16.53;9.13;;;1.00;99.90;;;;;;5077558;28;20443;-64
2023/03/03 04:32:02;;;;;;;11.97;6.07;;;1.00;99.90;;;;;;5076642;28;20464;-65
2023/03/03 04:34:29;;;;;;;19.70;7.70;;;1.00;99.90;;;;;;5076600;28;20454;-64
2023/03/03 04:36:56;;;;;;;16.27;9.00;;;1.00;99.90;;;;;;5076061;28;20971;-64
2023/03/03 04:39:23;;;;;;;20.17;9.87;;;0.90;99.90;;;;;;5076793;28;20471;-64
2023/03/03 04:41:49;;;;;;;16.70;7.50;;;0.90;99.90;;;;;;5077399;28;20439;-63
2023/03/03 04:44:18;;;;;;;15.30;6.70;;;0.90;99.90;;;;;;5075924;28;20452;-65
2023/03/03 04:46:44;;;;;;;20.80;11.37;;;0.90;99.90;;;;;;5076460;28;20507;-65
2023/03/03 04:49:11;;;;;;;25.67;9.77;;;1.00;99.90;;;;;;5075496;28;20517;-64
2023/03/03 04:51:38;;;;;;;20.03;8.23;;;1.00;99.90;;;;;;5075751;28;20439;-65
2023/03/03 04:54:05;;;;;;;13.00;6.50;;;1.10;99.90;;;;;;5075521;28;20479;-64
2023/03/03 04:56:32;;;;;;;21.23;10.00;;;1.00;99.90;;;;;;5076341;28;20832;-65
2023/03/03 04:58:59;;;;;;;20.33;7.63;;;1.00;99.90;;;;;;5077141;28;20459;-62
2023/03/03 05:01:27;;;;;;;13.80;7.53;;;1.00;99.90;;;;;;5077509;28;20439;-64
2023/03/03 05:03:54;;;;;;;12.87;6.77;;;1.00;99.90;;;;;;5076898;28;20427;-65
2023/03/03 05:06:21;;;;;;;15.83;6.23;;;0.90;99.90;;;;;;5076353;28;20439;-65
2023/03/03 05:08:48;;;;;;;12.80;5.87;;;0.80;99.90;;;;;;5077536;28;20475;-63
2023/03/03 05:11:15;;;;;;;17.87;8.50;;;0.80;99.90;;;;;;5077102;28;20479;-65
2023/03/03 05:13:41;;;;;;;17.57;7.20;;;0.80;99.90;;;;;;5077088;28;20446;-65
2023/03/03 05:16:09;;;;;;;17.20;8.00;;;0.80;99.90;;;;;;5078513;28;20490;-57
2023/03/03 05:18:37;;;;;;;19.37;9.50;;;0.80;99.90;;;;;;5078163;28;20438;-65
2023/03/03 05:21:04;;;;;;;16.83;6.97;;;0.80;99.90;;;;;;5078886;28;20440;-65
2023/03/03 05:23:31;;;;;;;16.77;8.07;;;0.80;99.90;;;;;;5078789;28;20419;-63
2023/03/03 05:25:58;;;;;;;18.30;9.97;;;0.80;99.90;;;;;;5077561;28;20470;-65
2023/03/03 05:28:25;;;;;;;17.97;9.70;;;0.80;99.90;;;;;;5077144;28;20499;-64
2023/03/03 05:30:52;;;;;;;14.23;8.30;;;0.80;99.90;;;;;;5076534;28;20499;-64
2023/03/03 05:33:19;;;;;;;21.93;9.30;;;0.90;99.90;;;;;;5076846;28;20495;-64
2023/03/03 05:35:47;;;;;;;14.87;8.70;;;0.80;99.90;;;;;;5076475;28;20436;-64
2023/03/03 05:38:16;;;;;;;22.53;9.70;;;0.60;99.90;;;;;;5075974;28;20499;-65
2023/03/03 05:40:43;;;;;;;21.47;8.87;;;0.60;99.90;;;;;;5076759;28;20467;-65
2023/03/03 05:43:10;;;;;;;16.70;10.23;;;0.50;99.90;;;;;;5077242;28;20427;-65
2023/03/03 05:45:37;;;;;;;14.80;7.47;;;0.50;99.90;;;;;;5075943;28;20443;-65
2023/03/03 05:48:04;;;;;;;17.13;8.97;;;0.50;99.90;;;;;;5076416;28;20444;-65
2023/03/03 05:50:34;;;;;;;22.63;10.30;;;0.60;99.90;;;;;;5076009;28;20970;-65
2023/03/03 05:53:03;;;;;;;17.77;10.70;;;0.70;99.90;;;;;;5076461;28;20440;-63
2023/03/03 05:55:30;;;;;;;20.60;9.27;;;0.60;99.90;;;;;;5075930;28;20479;-64
2023/03/03 05:57:59;;;;;;;19.73;9.77;;;0.50;99.90;;;;;;5075663;28;20471;-65
2023/03/03 06:00:26;;;;;;;19.03;10.47;;;0.50;99.90;;;;;;5075441;28;20455;-65
2023/03/03 06:02:53;;;;;;;18.00;7.47;;;0.50;99.90;;;;;;5074368;28;20451;-64
2023/03/03 06:05:21;;;;;;;17.77;9.17;;;0.60;99.90;;;;;;5074356;28;20475;-65
2023/03/03 06:07:48;;;;;;;12.60;9.30;;;0.60;99.90;;;;;;5074513;28;20439;-63
2023/03/03 06:10:17;;;;;;;18.10;7.60;;;0.70;99.90;;;;;;5075869;28;20479;-62
2023/03/03 06:12:44;;;;;;;18.60;9.40;;;0.70;99.90;;;;;;5076806;28;20477;-65
2023/03/03 06:15:12;;;;;;;22.30;9.93;;;0.70;99.90;;;;;;5077654;28;20439;-61
2023/03/03 06:17:39;;;;;;;18.27;8.63;;;0.70;99.90;;;;;;5076844;28;20460;-65
2023/03/03 06:20:07;;;;;;;16.23;7.33;;;0.70;99.90;;;;;;5076949;28;20416;-65
2023/03/03 06:22:34;;;;;;;31.47;10.17;;;0.60;99.90;;;;;;5075920;28;20526;-64
2023/03/03 06:25:01;;;;;;;17.63;7.73;;;0.50;99.90;;;;;;5075872;28;20428;-64
2023/03/03 06:27:29;;;;;;;24.60;10.40;;;0.60;99.90;;;;;;5075728;28;20485;-63
2023/03/03 06:29:56;;;;;;;16.13;7.43;;;0.60;99.90;;;;;;5075878;28;20494;-63
2023/03/03 06:32:23;;;;;;;21.23;9.43;;;0.60;99.90;;;;;;5075695;28;20443;-64
2023/03/03 06:34:49;;;;;;;25.07;10.80;;;0.60;99.90;;;;;;5075830;28;20467;-65
2023/03/03 06:37:16;;;;;;;25.37;9.03;;;0.50;99.90;;;;;;5076578;28;20439;-65
2023/03/03 06:39:43;;;;;;;20.37;8.40;;;0.50;99.90;;;;;;5075729;28;20443;-64
2023/03/03 06:42:10;;;;;;;19.77;10.47;;;0.50;99.90;;;;;;5075529;28;20451;-65
2023/03/03 06:44:38;;;;;;;20.47;8.90;;;0.60;99.90;;;;;;5074718;28;20423;-64
2023/03/03 06:47:05;;;;;;;20.13;9.50;;;0.70;99.90;;;;;;5073938;28;20450;-65
2023/03/03 06:49:34;;;;;;;22.80;11.67;;;0.80;99.90;;;;;;5074558;28;20479;-64
2023/03/03 06:52:09;;;;;;;14.97;8.00;;;0.90;99.90;;;;;;5074874;28;20506;-63
2023/03/03 06:54:36;;;;;;;29.03;8.67;;;0.90;99.90;;;;;;5075309;28;20455;-64
2023/03/03 06:57:16;;;;;;;22.93;7.87;;;0.90;99.90;;;;;;5075965;28;20447;-62
2023/03/03 06:59:47;;;;;;;26.50;9.70;;;0.90;99.90;;;;;;5075155;28;20847;-65
2023/03/03 07:02:17;;;;;;;14.93;6.80;;;0.80;99.90;;;;;;5074899;28;20490;-66
2023/03/03 07:04:45;;;;;;;21.80;9.60;;;0.80;99.90;;;;;;5075561;28;20439;-65
2023/03/03 07:07:17;;;;;;;23.00;9.77;;;0.80;99.90;;;;;;5075785;28;20509;-64
2023/03/03 07:09:45;;;;;;;15.53;8.80;;;0.80;99.90;;;;;;5075784;28;20454;-64
2023/03/03 07:12:15;;;;;;;21.00;8.40;;;0.80;99.90;;;;;;5075177;28;20470;-64
2023/03/03 07:14:45;;;;;;;23.20;8.30;;;0.70;99.90;;;;;;5076355;28;20479;-65
2023/03/03 07:17:17;;;;;;;19.73;10.17;;;0.80;99.90;;;;;;5075513;28;20473;-65
2023/03/03 07:19:44;;;;;;;19.53;7.37;;;0.70;99.90;;;;;;5076210;28;20455;-64
2023/03/03 07:22:15;;;;;;;22.67;8.97;;;0.70;99.90;;;;;;5076068;28;20477;-64
2023/03/03 07:24:43;;;;;;;23.03;11.73;;;0.80;99.90;;;;;;5074275;28;20486;-64
2023/03/03 07:27:14;;;;;;;19.00;7.70;;;0.80;99.90;;;;;;5074737;28;20494;-63
2023/03/03 07:29:41;;;;;;;27.40;12.03;;;0.80;99.90;;;;;;5073878;28;20491;-65
2023/03/03 07:32:24;;;;;;;28.00;11.90;;;0.80;99.90;;;;;;5077547;28;20443;-65
2023/03/03 07:34:52;;;;;;;23.90;12.27;;;0.80;99.90;;;;;;5077841;28;20427;-64
2023/03/03 07:37:29;;;;;;;24.90;10.30;;;0.70;99.90;;;;;;5078208;28;20450;-65
2023/03/03 07:39:56;;;;;;;25.60;12.03;;;0.80;99.90;;;;;;5078960;28;20431;-66
2023/03/03 07:42:26;;;;;;;18.53;10.40;;;0.80;99.90;;;;;;5079149;28;20459;-63
2023/03/03 07:44:56;;;;;;;23.10;9.27;;;0.80;99.90;;;;;;5079847;28;20499;-66
2023/03/03 07:47:26;;;;;;;28.07;9.53;;;0.80;99.90;;;;;;5079706;28;20503;-65
2023/03/03 07:49:55;;;;;;;25.03;7.70;;;0.80;99.90;;;;;;5079562;28;20525;-65
2023/03/03 07:52:39;;;;;;;25.70;10.33;;;0.90;99.90;;;;;;5078999;28;20436;-65
2023/03/03 07:55:25;;;;;;;26.70;14.17;;;0.90;99.90;;;;;;5079657;28;20458;-66
2023/03/03 07:57:54;;;;;;;25.03;12.87;;;0.90;99.90;;;;;;5079413;28;20431;-62
2023/03/03 08:01:10;;;;;;;23.43;10.57;;;0.80;99.90;;;;;;5079016;28;20519;-65
2023/03/03 08:03:38;;;;;;;21.70;10.70;;;0.70;99.90;;;;;;5079338;28;20431;-63
2023/03/03 08:06:28;;;;;;;30.10;10.50;;;0.70;99.90;;;;;;5078729;28;20473;-66
2023/03/03 08:08:57;;;;;;;29.13;11.07;;;0.80;99.90;;;;;;5078543;28;20519;-67
2023/03/03 08:11:25;;;;;;;13.50;6.43;;;0.70;99.90;;;;;;5078300;28;20459;-65
2023/03/03 08:13:52;;;;;;;25.30;9.10;;;0.70;99.90;;;;;;5079287;28;20446;-64
2023/03/03 08:16:35;;;;;;;19.67;7.10;;;1.90;99.90;;;;;;5079398;28;20443;-61
2023/03/03 08:19:06;;;;;;;21.57;10.23;;;0.70;99.90;;;;;;5079318;28;20424;-66
2023/03/03 08:21:35;;;;;;;20.73;10.37;;;0.80;99.90;;;;;;5078884;28;20478;-66
2023/03/03 08:24:02;;;;;;;15.13;6.60;;;0.80;99.90;;;;;;5079032;28;20469;-67
2023/03/03 08:26:29;;;;;;;17.53;7.40;;;0.90;99.90;;;;;;5078535;28;20464;-61
2023/03/03 08:28:57;;;;;;;17.50;5.87;;;1.00;99.90;;;;;;5078833;28;20451;-66
2023/03/03 08:31:25;;;;;;;22.73;7.73;;;1.00;99.90;;;;;;5079777;28;20475;-63
2023/03/03 08:33:52;;;;;;;21.10;10.07;;;1.10;99.90;;;;;;5080333;28;20443;-65
2023/03/03 08:36:20;;;;;;;17.07;9.13;;;1.10;99.90;;;;;;5078858;28;20474;-63
2023/03/03 08:38:47;;;;;;;15.77;7.00;;;1.00;99.90;;;;;;5078985;28;20471;-64
2023/03/03 08:41:14;;;;;;;27.37;7.30;;;1.00;99.90;;;;;;5079084;28;20474;-62
2023/03/03 08:43:44;;;;;;;17.13;6.90;;;0.90;99.90;;;;;;5079654;28;20467;-65
2023/03/03 08:46:11;;;;;;;16.87;7.57;;;0.90;99.90;;;;;;5079573;28;20427;-64
2023/03/03 08:48:38;;;;;;;23.70;9.67;;;0.90;99.90;;;;;;5078413;28;20462;-62
2023/03/03 08:51:07;;;;;;;24.90;10.10;;;0.90;99.90;;;;;;5077983;28;20491;-64
2023/03/03 08:53:37;;;;;;;30.70;9.50;;;1.00;99.90;;;;;;5078096;28;20455;-61
2023/03/03 08:56:04;;;;;;;24.63;10.30;;;1.00;99.90;;;;;;5078123;28;20454;-66
2023/03/03 08:58:31;;;;;;;19.60;9.10;;;1.10;99.90;;;;;;5077754;28;20443;-64
2023/03/03 09:00:58;;;;;;;15.80;6.77;;;1.20;99.90;;;;;;5078035;28;20458;-64
2023/03/03 09:03:25;;;;;;;8.80;4.20;;;1.30;99.90;;;;;;5078131;28;20485;-66
2023/03/03 09:05:52;;;;;;;18.30;7.90;;;1.20;99.90;;;;;;5077217;28;20463;-62
2023/03/03 09:08:19;;;;;;;9.43;5.97;;;1.10;99.90;;;;;;5077395;28;20457;-64
2023/03/03 09:10:47;;;;;;;12.60;6.80;;;1.20;99.90;;;;;;5078015;28;20479;-65
2023/03/03 09:13:17;;;;;;;19.07;7.37;;;1.20;99.90;;;;;;5077664;28;20416;-63
2023/03/03 09:15:49;;;;;;;8.63;5.20;;;1.30;99.90;;;;;;5078171;28;20745;-63
2023/03/03 09:18:18;;;;;;;10.70;6.60;;;1.40;99.90;;;;;;5077034;28;20487;-65
2023/03/03 09:20:46;;;;;;;10.90;5.60;;;1.40;99.90;;;;;;5077296;28;20467;-61
2023/03/03 09:23:36;;;;;;;13.43;7.77;;;1.50;99.90;;;;;;5077076;28;20474;-65
2023/03/03 09:26:30;;;;;;;13.37;7.23;;;1.50;99.90;;;;;;5067028;28;20451;-62
2023/03/03 09:29:23;;;;;;;13.13;6.33;;;1.50;99.90;;;;;;5077672;28;20489;-63
2023/03/03 09:31:52;;;;;;;19.07;7.37;;;1.60;99.90;;;;;;5079072;28;20471;-56
2023/03/03 09:34:22;;;;;;;18.43;7.23;;;1.60;99.90;;;;;;5079282;28;20498;-61
2023/03/03 09:36:50;;;;;;;19.63;6.67;;;1.60;99.90;;;;;;5078722;28;20415;-61
2023/03/03 09:39:19;;;;;;;11.50;4.67;;;1.60;99.90;;;;;;5078189;28;20459;-61
2023/03/03 09:42:20;;;;;;;7.73;4.00;;;1.60;99.90;;;;;;5077278;28;20416;-59
2023/03/03 09:45:25;;;;;;;11.70;6.83;;;1.70;99.90;;;;;;5076095;28;20439;-69
2023/03/03 09:48:04;;;;;;;11.10;6.73;;;1.80;99.90;;;;;;5077619;28;20418;-66
2023/03/03 09:50:44;;;;;;;13.33;6.00;;;1.80;99.90;;;;;;5077665;28;20504;-65
2023/03/03 09:53:28;;;;;;;15.97;6.40;;;1.80;99.90;;;;;;5076849;28;20399;-65
2023/03/03 09:56:02;;;;;;;13.70;8.27;;;1.90;99.90;;;;;;5077691;28;20439;-63
2023/03/03 09:58:44;;;;;;;19.10;9.17;;;1.90;99.90;;;;;;5077136;28;20597;-60
2023/03/03 10:01:33;;;;;;;18.77;10.70;;;1.90;99.90;;;;;;5076449;28;20432;-64
2023/03/03 10:04:25;;;;;;;17.00;9.00;;;2.10;99.90;;;;;;5076357;28;20435;-62
2023/03/03 10:07:05;;;;;;;21.47;8.70;;;2.20;99.90;;;;;;5076059;28;20412;-64
2023/03/03 10:09:47;;;;;;;14.90;8.00;;;2.20;99.90;;;;;;5076236;28;20430;-64
2023/03/03 10:12:21;;;;;;;9.07;5.43;;;2.20;99.90;;;;;;5077080;28;20446;-64
2023/03/03 10:15:11;;;;;;;8.97;5.37;;;2.20;99.90;;;;;;5076898;28;20411;-65
2023/03/03 10:17:51;;;;;;;11.10;5.87;;;2.40;99.90;;;;;;5076771;28;20434;-64
2023/03/03 10:20:33;;;;;;;14.83;6.20;;;2.50;99.90;;;;;;5076875;28;20411;-61
2023/03/03 10:23:12;;;;;;;10.73;5.30;;;2.50;99.90;;;;;;5078113;28;20435;-64
2023/03/03 10:25:41;;;;;;;8.60;4.03;;;2.60;99.90;;;;;;5077849;28;20467;-62
2023/03/03 10:28:34;;;;;;;14.70;6.07;;;2.60;99.90;;;;;;5076421;28;20436;-63
2023/03/03 10:31:10;;;;;;;12.80;5.53;;;2.60;99.90;;;;;;5076746;28;20779;-65
2023/03/03 10:33:46;;;;;;;12.80;6.20;;;2.60;99.90;;;;;;5077793;28;20413;-65
2023/03/03 10:36:38;;;;;;;11.87;5.60;;;2.70;99.90;;;;;;5077284;28;20486;-60
2023/03/03 10:39:29;;;;;;;10.80;5.27;;;2.70;99.90;;;;;;5076082;28;20431;-68
2023/03/03 10:42:11;;;;;;;9.90;5.07;;;2.80;99.90;;;;;;5076242;28;20462;-63
2023/03/03 10:45:03;;;;;;;14.33;6.40;;;2.90;99.90;;;;;;5076526;28;20454;-64
2023/03/03 10:47:52;;;;;;;8.63;6.07;;;2.90;99.90;;;;;;5075491;28;20477;-63
2023/03/03 10:50:27;;;;;;;10.50;3.97;;;3.00;99.90;;;;;;5075468;28;20463;-65
2023/03/03 10:53:03;;;;;;;11.20;5.73;;;3.10;99.90;;;;;;5075859;28;20474;-65
2023/03/03 10:55:41;;;;;;;12.90;5.67;;;3.10;99.90;;;;;;5078439;28;20435;-63
2023/03/03 10:58:51;;;;;;;7.40;4.20;;;3.10;99.90;;;;;;5078057;28;20471;-64
2023/03/03 11:01:28;;;;;;;9.50;5.10;;;3.00;99.90;;;;;;5057543;28;20463;-66
2023/03/03 11:04:29;;;;;;;8.10;3.87;;;3.00;99.90;;;;;;5078016;28;20447;-64
2023/03/03 11:07:06;;;;;;;11.00;5.87;;;3.00;99.90;;;;;;5076906;28;20435;-65
2023/03/03 11:09:49;;;;;;;14.27;6.40;;;3.00;99.90;;;;;;5081655;28;20453;-67
2023/03/03 11:12:29;;;;;;;10.00;6.43;;;3.10;99.90;;;;;;5081346;28;20478;-64
2023/03/03 11:15:19;;;;;;;16.37;7.67;;;3.10;99.90;;;;;;5081495;28;20494;-64
2023/03/03 11:18:02;;;;;;;10.33;5.40;;;3.00;99.90;;;;;;5081182;28;20446;-66
2023/03/03 11:20:36;;;;;;;9.57;4.37;;;3.20;99.90;;;;;;5079895;28;20455;-63
2023/03/03 11:23:30;;;;;;;19.37;5.97;;;3.20;99.90;;;;;;5080230;28;20416;-64
2023/03/03 11:26:12;;;;;;;11.10;5.20;;;3.20;99.90;;;;;;5079320;28;20428;-66
2023/03/03 11:28:59;;;;;;;12.67;6.43;;;3.30;99.90;;;;;;5079475;28;20628;-67
2023/03/03 11:31:36;;;;;;;16.80;6.17;;;3.40;99.90;;;;;;5079338;28;20467;-66
2023/03/03 11:34:14;;;;;;;22.63;7.87;;;3.30;99.90;;;;;;5080519;28;20450;-68
2023/03/03 11:36:48;;;;;;;11.63;5.97;;;3.40;99.90;;;;;;5080493;28;20438;-64
2023/03/03 11:39:19;;;;;;;14.80;7.20;;;3.40;99.90;;;;;;5080890;28;20462;-65
2023/03/03 11:42:00;;;;;;;11.20;5.77;;;3.30;99.90;;;;;;5080307;28;20423;-66
2023/03/03 11:44:30;;;;;;;29.50;10.93;;;3.30;99.90;;;;;;5080000;28;20470;-64
2023/03/03 11:47:03;;;;;;;17.20;8.50;;;3.30;99.90;;;;;;5080491;28;20431;-65
2023/03/03 11:49:35;;;;;;;17.10;7.13;;;3.30;99.90;;;;;;5080572;28;20463;-63
2023/03/03 11:52:12;;;;;;;20.33;6.70;;;3.40;99.90;;;;;;5080927;28;20443;-66
2023/03/03 11:54:48;;;;;;;18.13;6.73;;;3.50;99.90;;;;;;5081258;28;20520;-63
2023/03/03 11:57:21;;;;;;;19.27;11.67;;;3.50;99.90;;;;;;5080697;28;20450;-65
2023/03/03 12:00:18;;;;;;;24.50;12.10;;;3.50;99.90;;;;;;5078630;28;20451;-65
2023/03/03 12:03:10;;;;;;;18.67;8.40;;;3.70;99.90;;;;;;5078914;28;20508;-64
2023/03/03 12:05:56;;;;;;;22.30;8.57;;;3.80;99.90;;;;;;5076815;28;20459;-63
2023/03/03 12:09:01;;;;;;;19.97;7.23;;;3.90;99.90;;;;;;5074044;28;20442;-60
2023/03/03 12:11:36;;;;;;;24.43;8.83;;;4.00;99.90;;;;;;5077594;28;20508;-65
2023/03/03 12:14:12;;;;;;;15.97;6.97;;;4.00;99.90;;;;;;5078288;28;20424;-67
2023/03/03 12:16:49;;;;;;;14.30;6.67;;;4.00;99.90;;;;;;5077750;28;20466;-60
2023/03/03 12:19:35;;;;;;;13.07;7.27;;;3.90;99.90;;;;;;5077646;28;20411;-62
2023/03/03 12:22:13;;;;;;;15.27;7.43;;;3.80;99.90;;;;;;5079206;28;20428;-64
2023/03/03 12:24:54;;;;;;;15.00;6.47;;;3.80;99.90;;;;;;5077931;28;20412;-61
2023/03/03 12:27:30;;;;;;;12.13;5.97;;;3.90;99.90;;;;;;5078518;28;20451;-64
2023/03/03 12:30:12;;;;;;;12.30;5.80;;;3.90;99.90;;;;;;5077314;28;20447;-61
2023/03/03 12:33:02;;;;;;;13.80;6.43;;;3.80;99.90;;;;;;5077040;28;20479;-64
2023/03/03 12:35:34;;;;;;;17.97;7.67;;;3.70;99.90;;;;;;5077801;28;20566;-65
2023/03/03 12:38:11;;;;;;;13.87;6.00;;;3.80;99.90;;;;;;5077710;28;20486;-63
2023/03/03 12:40:44;;;;;;;13.77;6.77;;;3.80;99.90;;;;;;5078023;28;20494;-64
2023/03/03 12:43:28;;;;;;;7.50;4.97;;;3.90;99.90;;;;;;5079395;28;20423;-65
2023/03/03 12:46:06;;;;;;;10.30;6.50;;;3.90;99.90;;;;;;5079229;28;20447;-67
2023/03/03 12:48:40;;;;;;;11.57;4.47;;;3.90;99.90;;;;;;5078540;28;20435;-66
2023/03/03 12:51:15;;;;;;;14.13;6.90;;;3.80;99.90;;;;;;5077476;28;20502;-62
2023/03/03 12:54:21;;;;;;;16.40;8.60;;;3.80;99.90;;;;;;5078018;28;20427;-62
2023/03/03 12:56:54;;;;;;;14.27;5.73;;;3.70;99.90;;;;;;5016538;28;20468;-63
2023/03/03 12:59:35;;;;;;;11.50;6.03;;;3.80;99.90;;;;;;5066853;28;20447;-66
2023/03/03 13:02:35;;;;;;;15.73;5.70;;;3.80;99.90;;;;;;5076948;28;20466;-63
2023/03/03 13:05:10;;;;;;;26.53;9.37;;;3.90;99.90;;;;;;5074340;28;20448;-65
2023/03/03 13:07:47;;;;;;;17.50;6.77;;;3.80;99.90;;;;;;5077707;28;20474;-68
2023/03/03 13:10:20;;;;;;;23.60;8.60;;;3.90;99.90;;;;;;5078370;28;20415;-63
2023/03/03 13:12:53;;;;;;;22.17;10.10;;;3.90;99.90;;;;;;5078896;28;20533;-57
2023/03/03 13:15:25;;;;;;;14.30;6.50;;;3.90;99.90;;;;;;5077353;28;20432;-65